Página principal
METAR-TAF:

METAR-TAF

Aeroportos :

Sal, Cabo Verde

Aeroporto Internacional Amílcar Cabral

latitude: 16-44N, longitude: 022-57W, altura: 54 m

Observação actual do tempo

O boletim foi feito há 47 minutos, às 06:00 UTC
Vento 9 kt de nor-nordeste
Temperatura 25°C
Humidade 83%
Pressão 1011 hPa
Visibilidade 10 km ou mais
Nuvens dispersasa uma altura de 1300 ft
Nuvens fragmentadasa uma altura de 1700 ft

METAR: GVAC 120600Z 02009KT 9999 SCT013 BKN017 25/22 Q1011 NOSIG

Hora: 05:47 (06:47 UTC)

Previsão

O boletim foi feito há 1 hora e 47 minutos, às 05:00 UTC
Previsão válida de 12 às 06 UTC a 13 às 12 UTC
Vento 12 kt de nordeste
Visibilidade 10 km ou mais
Nuvens fragmentadasa uma altura de 1300 ft

TAF: GVAC 120500Z 1206/1312 04012KT 9999 BKN013

Observações e previsões do tempo de mais de 4000 aeroportos (mensagens METAR e TAF).

As estações disponíveis são os pontos amarelos e vermelhos sobre o mapa.

Mova o rato sobre o mapa para ver o nome da estação.

Depois clique no ponto para visualizar as observações e previsões meteorológicas.

Para alterar o mapa : clique nos botões verdes com uma cruz preta para aumentar o zoom; no botão verde com uma pitada de zoom; ou nas setas verdes para mapas adjacentes.


METAR-TAF: